createdAt,value
2023-10-03T00:00:26.187Z,16.44
2023-10-03T00:02:56.651Z,16.46
2023-10-03T00:05:25.637Z,16.57
2023-10-03T00:07:53.464Z,16.62
2023-10-03T00:10:21.143Z,16.75
2023-10-03T00:12:52.712Z,16.47
2023-10-03T00:15:25.369Z,15.76
2023-10-03T00:17:55.947Z,15.73
2023-10-03T00:20:23.969Z,15.71
2023-10-03T00:22:52.438Z,15.46
2023-10-03T00:25:20.567Z,15.11
2023-10-03T00:27:53.595Z,15.07
2023-10-03T00:30:21.596Z,14.74
2023-10-03T00:32:58.785Z,15.04
2023-10-03T00:35:28.041Z,14.91
2023-10-03T00:37:55.477Z,14.97
2023-10-03T00:40:23.920Z,14.98
2023-10-03T00:42:58.366Z,15.28
2023-10-03T00:45:30.654Z,15.17
2023-10-03T00:48:00.724Z,15.68
2023-10-03T00:50:36.046Z,15.70
2023-10-03T00:53:11.841Z,15.61
2023-10-03T00:55:40.928Z,15.60
2023-10-03T00:58:13.396Z,15.66
2023-10-03T01:00:43.655Z,15.86
2023-10-03T01:03:30.448Z,15.80
2023-10-03T01:06:12.067Z,15.79
2023-10-03T01:22:12.553Z,16.07
2023-10-03T01:24:39.784Z,15.83
2023-10-03T01:27:06.909Z,15.37
2023-10-03T01:29:33.893Z,15.30
2023-10-03T01:32:01.122Z,14.96
2023-10-03T01:34:28.160Z,15.10
2023-10-03T01:36:55.325Z,15.16
2023-10-03T01:39:22.518Z,15.08
2023-10-03T01:41:49.717Z,15.21
2023-10-03T01:44:17.785Z,15.40
2023-10-03T01:46:46.160Z,15.23
2023-10-03T01:49:15.681Z,15.34
2023-10-03T01:51:43.059Z,15.53
2023-10-03T01:54:10.572Z,15.56
2023-10-03T01:56:38.018Z,15.63
2023-10-03T01:59:05.974Z,15.02
2023-10-03T02:01:36.463Z,14.68
2023-10-03T02:04:03.928Z,14.11
2023-10-03T02:06:31.129Z,14.13
2023-10-03T02:08:59.493Z,13.75
2023-10-03T02:11:28.365Z,13.73
2023-10-03T02:13:56.088Z,13.44
2023-10-03T02:16:23.747Z,13.77
2023-10-03T02:18:51.065Z,13.71
2023-10-03T02:21:18.247Z,13.96
2023-10-03T02:23:45.580Z,14.32
2023-10-03T02:26:13.138Z,14.63
2023-10-03T02:28:42.487Z,14.89
2023-10-03T02:31:10.439Z,14.89
2023-10-03T02:33:45.758Z,14.71
2023-10-03T02:36:16.422Z,14.67
2023-10-03T02:38:44.768Z,14.61
2023-10-03T02:41:13.877Z,14.83
2023-10-03T02:43:48.161Z,14.74
2023-10-03T02:46:28.163Z,14.90
2023-10-03T02:48:57.009Z,14.93
2023-10-03T02:51:25.129Z,14.90
2023-10-03T02:53:52.510Z,14.17
2023-10-03T02:56:19.933Z,14.71
2023-10-03T02:58:47.189Z,14.94
2023-10-03T03:01:14.987Z,14.93
2023-10-03T03:03:43.784Z,14.85
2023-10-03T03:06:13.406Z,14.79
2023-10-03T03:08:42.044Z,14.70
2023-10-03T03:11:12.425Z,14.21
2023-10-03T03:14:17.571Z,14.26
2023-10-03T03:16:50.414Z,13.59
2023-10-03T03:19:17.552Z,13.14
2023-10-03T03:21:45.566Z,12.83
2023-10-03T03:24:22.304Z,12.99
2023-10-03T03:26:49.432Z,13.38
2023-10-03T03:29:23.321Z,13.70
2023-10-03T03:31:52.740Z,13.65
2023-10-03T03:34:22.511Z,13.72
2023-10-03T03:36:51.190Z,13.65
2023-10-03T03:39:21.977Z,13.71
2023-10-03T03:41:51.008Z,13.98
2023-10-03T03:44:20.250Z,13.88
2023-10-03T03:46:47.983Z,13.52
2023-10-03T03:49:15.064Z,13.24
2023-10-03T03:51:42.018Z,13.03
2023-10-03T03:54:10.621Z,13.32
2023-10-03T03:56:37.928Z,13.72
2023-10-03T03:59:04.999Z,13.86
2023-10-03T04:01:34.501Z,13.69
2023-10-03T04:04:03.356Z,13.79
2023-10-03T04:06:30.643Z,13.70
2023-10-03T04:09:07.506Z,13.68
2023-10-03T04:11:37.580Z,13.67
2023-10-03T04:14:07.841Z,13.27
2023-10-03T04:16:45.800Z,12.85
2023-10-03T04:19:13.369Z,12.70
2023-10-03T04:21:43.750Z,12.69
2023-10-03T04:24:12.987Z,12.77
2023-10-03T04:26:44.661Z,12.94
2023-10-03T04:29:15.556Z,12.84
2023-10-03T04:31:45.676Z,12.83
2023-10-03T04:34:16.215Z,12.86
2023-10-03T04:36:43.288Z,13.25
2023-10-03T04:39:12.934Z,13.09
2023-10-03T04:41:45.540Z,13.48
2023-10-03T04:44:17.739Z,13.69
2023-10-03T04:46:49.583Z,13.75
2023-10-03T04:49:17.524Z,13.87
2023-10-03T04:51:49.333Z,13.97
2023-10-03T04:54:17.955Z,14.37
2023-10-03T04:56:46.312Z,14.16
2023-10-03T04:59:14.091Z,13.98
2023-10-03T05:01:41.180Z,13.64
2023-10-03T05:04:08.330Z,14.18
2023-10-03T05:06:37.323Z,14.30
2023-10-03T05:09:06.204Z,14.24
2023-10-03T05:11:34.336Z,14.30
2023-10-03T05:14:02.226Z,14.45
2023-10-03T05:16:30.493Z,14.69
2023-10-03T05:18:57.619Z,14.64
2023-10-03T05:21:24.746Z,14.50
2023-10-03T05:23:53.333Z,14.27
2023-10-03T05:26:21.176Z,14.31
2023-10-03T05:28:48.289Z,14.01
2023-10-03T05:31:16.559Z,13.88
2023-10-03T05:33:43.834Z,13.99
2023-10-03T05:36:20.130Z,13.94
2023-10-03T05:38:47.586Z,14.17
2023-10-03T05:41:22.521Z,14.30
2023-10-03T05:43:50.795Z,14.50
2023-10-03T05:46:17.829Z,14.47
2023-10-03T05:48:45.508Z,14.24
2023-10-03T05:51:13.436Z,14.08
2023-10-03T05:53:43.547Z,14.16
2023-10-03T05:56:11.594Z,14.55
2023-10-03T05:58:38.800Z,14.80
2023-10-03T06:01:06.475Z,14.67
2023-10-03T06:03:33.978Z,14.84
2023-10-03T06:06:01.314Z,14.58
2023-10-03T06:08:28.829Z,14.54
2023-10-03T06:10:59.227Z,14.69
2023-10-03T06:13:26.461Z,14.97
2023-10-03T06:15:53.604Z,15.06
2023-10-03T06:18:20.813Z,15.26
2023-10-03T06:20:50.038Z,15.73
2023-10-03T06:23:17.250Z,15.83
2023-10-03T06:25:45.390Z,15.83
2023-10-03T06:28:12.453Z,16.32
2023-10-03T06:30:39.904Z,16.56
2023-10-03T06:33:08.890Z,16.66
2023-10-03T06:35:37.036Z,16.97
2023-10-03T06:38:04.692Z,16.89
2023-10-03T06:40:32.017Z,16.99
2023-10-03T06:42:59.629Z,17.20
2023-10-03T06:45:26.734Z,17.49
2023-10-03T06:47:55.650Z,17.42
2023-10-03T06:50:25.409Z,17.52
2023-10-03T06:52:53.299Z,17.75
2023-10-03T06:55:20.741Z,17.98
2023-10-03T06:57:48.611Z,18.28
2023-10-03T07:00:17.838Z,18.34
2023-10-03T07:02:45.682Z,18.11
2023-10-03T07:05:13.169Z,18.16
2023-10-03T07:07:40.878Z,18.29
2023-10-03T07:10:08.832Z,18.25
2023-10-03T07:12:35.880Z,18.41
2023-10-03T07:15:03.390Z,18.43
2023-10-03T07:17:32.175Z,18.53
2023-10-03T07:19:59.619Z,18.76
2023-10-03T07:22:26.731Z,18.84
2023-10-03T07:25:29.431Z,18.70
2023-10-03T07:27:56.468Z,19.14
2023-10-03T07:30:23.590Z,19.10
2023-10-03T07:32:50.949Z,19.27
2023-10-03T07:35:20.473Z,19.10
2023-10-03T07:37:47.675Z,19.12
2023-10-03T07:40:14.730Z,19.41
2023-10-03T07:42:41.997Z,19.42
2023-10-03T07:45:10.149Z,19.76
2023-10-03T07:47:42.642Z,19.97
2023-10-03T07:50:13.288Z,20.11
2023-10-03T07:52:43.191Z,19.93
2023-10-03T07:58:34.059Z,20.48
2023-10-03T08:01:01.427Z,20.63
2023-10-03T08:03:29.928Z,20.72
2023-10-03T08:05:59.006Z,20.69
2023-10-03T08:08:29.034Z,20.86
2023-10-03T08:10:57.417Z,21.00
2023-10-03T08:13:24.815Z,21.05
2023-10-03T08:15:52.109Z,21.17
2023-10-03T08:18:20.093Z,21.41
2023-10-03T08:20:55.383Z,21.41
2023-10-03T08:23:22.905Z,21.36
2023-10-03T08:25:49.920Z,21.42
2023-10-03T08:28:21.867Z,21.34
2023-10-03T08:30:51.501Z,21.23
2023-10-03T08:33:21.027Z,21.21
2023-10-03T08:35:49.524Z,21.08
2023-10-03T08:38:16.825Z,21.33
2023-10-03T08:40:51.302Z,21.54
2023-10-03T08:43:27.435Z,21.60
2023-10-03T08:45:58.492Z,21.46
2023-10-03T08:48:30.992Z,21.48
2023-10-03T08:51:02.234Z,21.77
2023-10-03T08:53:30.910Z,21.30
2023-10-03T08:56:05.078Z,21.33
2023-10-03T08:58:32.938Z,21.58
2023-10-03T09:01:00.209Z,21.82
2023-10-03T09:03:47.700Z,21.97
2023-10-03T09:06:25.040Z,22.16
2023-10-03T09:09:09.720Z,22.14
2023-10-03T09:11:40.857Z,22.06
2023-10-03T09:14:09.314Z,22.17
2023-10-03T09:16:40.325Z,22.20
2023-10-03T09:19:24.795Z,22.30
2023-10-03T09:21:53.215Z,22.23
2023-10-03T09:24:22.613Z,22.30
2023-10-03T09:26:58.752Z,22.58
2023-10-03T09:29:33.290Z,22.29
2023-10-03T09:32:14.435Z,22.34
2023-10-03T09:34:43.379Z,22.25
2023-10-03T09:37:11.290Z,21.98
2023-10-03T09:39:49.968Z,21.73
2023-10-03T09:42:20.392Z,21.61
2023-10-03T09:44:50.026Z,21.44
2023-10-03T09:47:20.625Z,21.88
2023-10-03T09:49:48.728Z,22.21
2023-10-03T09:52:24.067Z,22.54
2023-10-03T09:54:56.247Z,22.82
2023-10-03T09:57:24.441Z,22.96
2023-10-03T09:59:51.993Z,22.97
2023-10-03T10:02:41.542Z,23.10
2023-10-03T10:05:22.175Z,23.11
2023-10-03T10:08:19.265Z,23.28
2023-10-03T10:11:11.259Z,23.01
2023-10-03T10:13:44.167Z,22.54
2023-10-03T10:16:12.658Z,22.70
2023-10-03T10:18:46.067Z,23.02
2023-10-03T10:21:25.568Z,23.12
2023-10-03T10:24:17.144Z,23.18
2023-10-03T10:26:53.831Z,23.19
2023-10-03T10:29:25.930Z,23.10
2023-10-03T10:32:00.458Z,23.28
2023-10-03T10:34:28.450Z,23.03
2023-10-03T10:37:12.388Z,23.09
2023-10-03T10:39:59.194Z,23.28
2023-10-03T10:42:27.748Z,23.42
2023-10-03T10:45:16.439Z,23.61
2023-10-03T10:47:50.132Z,23.72
2023-10-03T10:50:22.364Z,23.84
2023-10-03T10:53:04.176Z,23.56
2023-10-03T10:55:33.401Z,23.41
2023-10-03T10:58:04.470Z,23.68
2023-10-03T11:00:35.126Z,23.86
2023-10-03T11:03:04.632Z,23.51
2023-10-03T11:05:49.187Z,23.58
2023-10-03T11:08:18.917Z,23.50
2023-10-03T11:10:53.830Z,23.53
2023-10-03T11:13:22.426Z,23.42
2023-10-03T11:15:53.389Z,23.35
2023-10-03T11:18:31.786Z,23.17
2023-10-03T11:21:01.238Z,23.01
2023-10-03T11:23:28.518Z,23.02
2023-10-03T11:25:59.059Z,23.36
2023-10-03T11:28:30.746Z,23.55
2023-10-03T11:31:03.134Z,23.74
2023-10-03T11:33:42.863Z,23.87
2023-10-03T11:36:10.278Z,23.81
2023-10-03T11:38:48.512Z,23.94
2023-10-03T11:41:33.260Z,23.96
2023-10-03T11:44:02.360Z,23.98
2023-10-03T11:46:40.110Z,23.97
2023-10-03T11:49:09.590Z,23.61
2023-10-03T11:51:44.125Z,23.58
2023-10-03T11:54:12.867Z,23.78
2023-10-03T11:56:46.554Z,23.91
2023-10-03T11:59:16.060Z,24.00
2023-10-03T12:01:58.383Z,24.07
2023-10-03T12:04:25.815Z,23.79
2023-10-03T12:06:53.406Z,23.81
2023-10-03T12:09:21.607Z,23.72
2023-10-03T12:11:49.897Z,23.75
2023-10-03T12:14:17.327Z,23.99
2023-10-03T12:16:47.252Z,24.03
2023-10-03T12:19:14.237Z,24.14
2023-10-03T12:21:41.264Z,24.19
2023-10-03T12:24:08.526Z,24.16
2023-10-03T12:26:35.842Z,23.97
2023-10-03T12:29:05.984Z,23.63
2023-10-03T12:31:36.500Z,23.77
2023-10-03T12:34:03.780Z,23.93
2023-10-03T12:36:34.337Z,24.03
2023-10-03T12:39:12.079Z,24.05
2023-10-03T12:41:39.887Z,24.10
2023-10-03T12:44:06.994Z,24.04
2023-10-03T12:46:34.341Z,24.30
2023-10-03T12:49:01.764Z,23.98
2023-10-03T12:51:29.106Z,24.27
2023-10-03T12:53:56.611Z,24.19
2023-10-03T12:56:24.321Z,24.33
2023-10-03T12:58:51.381Z,24.32
2023-10-03T13:01:18.511Z,24.28
2023-10-03T13:03:48.438Z,24.23
2023-10-03T13:06:20.440Z,24.37
2023-10-03T13:08:47.526Z,24.06
2023-10-03T13:11:15.632Z,23.94
2023-10-03T13:13:43.082Z,23.55
2023-10-03T13:16:10.342Z,23.45
2023-10-03T13:18:38.918Z,23.49
2023-10-03T13:21:06.687Z,23.25
2023-10-03T13:23:34.446Z,23.46
2023-10-03T13:26:02.313Z,23.49
2023-10-03T13:28:29.861Z,23.67
2023-10-03T13:30:57.673Z,23.73
2023-10-03T13:33:24.954Z,23.83
2023-10-03T13:35:52.126Z,23.99
2023-10-03T13:38:19.154Z,23.98
2023-10-03T13:40:46.343Z,23.85
2023-10-03T13:43:20.071Z,23.72
2023-10-03T13:45:49.750Z,23.59
2023-10-03T13:48:17.858Z,23.62
2023-10-03T13:50:48.306Z,23.67
2023-10-03T13:53:20.881Z,23.63
2023-10-03T13:55:49.173Z,23.51
2023-10-03T13:58:16.281Z,23.03
2023-10-03T14:00:43.317Z,23.14
2023-10-03T14:03:19.094Z,23.31
2023-10-03T14:05:49.434Z,23.46
2023-10-03T14:08:16.640Z,23.64
2023-10-03T14:10:44.653Z,23.65
2023-10-03T14:13:14.078Z,23.68
2023-10-03T14:15:41.985Z,23.67
2023-10-03T14:18:10.060Z,23.66
2023-10-03T14:20:40.130Z,23.82
2023-10-03T14:23:12.440Z,23.88
2023-10-03T14:25:40.949Z,23.84
2023-10-03T14:28:09.990Z,23.87
2023-10-03T14:30:37.371Z,23.96
2023-10-03T14:33:09.995Z,24.03
2023-10-03T14:35:44.135Z,23.97
2023-10-03T14:38:11.811Z,23.61
2023-10-03T14:40:39.861Z,23.65
2023-10-03T14:43:07.554Z,23.71
2023-10-03T14:45:34.658Z,23.25
2023-10-03T14:48:01.736Z,23.36
2023-10-03T14:50:29.344Z,23.22
2023-10-03T14:52:56.725Z,23.14
2023-10-03T14:55:24.213Z,23.37
2023-10-03T14:57:51.372Z,23.22
2023-10-03T15:00:19.307Z,23.20
2023-10-03T15:02:46.828Z,23.22
2023-10-03T15:05:15.571Z,23.31
2023-10-03T15:07:46.228Z,23.31
2023-10-03T15:10:13.258Z,23.26
2023-10-03T15:12:40.906Z,23.23
2023-10-03T15:15:08.519Z,23.16
2023-10-03T15:17:37.170Z,22.94
2023-10-03T15:20:06.767Z,23.01
2023-10-03T15:22:34.535Z,22.79
2023-10-03T15:25:01.868Z,22.92
2023-10-03T15:27:31.005Z,22.82
2023-10-03T15:30:00.535Z,22.74
2023-10-03T15:32:27.686Z,22.64
2023-10-03T15:34:55.031Z,22.55
2023-10-03T15:37:24.379Z,22.61
2023-10-03T15:39:52.908Z,22.60
2023-10-03T15:42:21.620Z,22.47
2023-10-03T15:45:07.221Z,22.47
2023-10-03T15:47:36.184Z,22.25
2023-10-03T15:50:03.615Z,22.08
2023-10-03T15:52:31.569Z,22.00
2023-10-03T15:55:01.144Z,22.03
2023-10-03T15:57:29.259Z,22.02
2023-10-03T15:59:56.708Z,21.99
2023-10-03T16:02:23.809Z,21.59
2023-10-03T16:04:50.800Z,21.45
2023-10-03T16:07:19.411Z,21.35
2023-10-03T16:09:50.661Z,21.41
2023-10-03T16:12:20.610Z,21.50
2023-10-03T16:14:48.024Z,21.06
2023-10-03T16:17:15.146Z,20.76
2023-10-03T16:19:43.436Z,20.67
2023-10-03T16:22:10.718Z,20.92
2023-10-03T16:24:37.780Z,20.70
2023-10-03T16:27:08.282Z,20.70
2023-10-03T16:29:35.443Z,20.68
2023-10-03T16:32:05.717Z,20.58
2023-10-03T16:34:32.753Z,20.51
2023-10-03T16:37:01.008Z,20.49
2023-10-03T16:39:29.265Z,20.34
2023-10-03T16:42:01.182Z,20.34
2023-10-03T16:44:28.901Z,20.24
2023-10-03T16:46:56.070Z,20.09
2023-10-03T16:49:23.584Z,20.13
2023-10-03T16:51:51.158Z,20.06
2023-10-03T16:54:18.511Z,19.91
2023-10-03T16:56:45.857Z,19.87
2023-10-03T16:59:13.784Z,19.79
2023-10-03T17:01:41.456Z,19.90
2023-10-03T17:04:08.607Z,19.84
2023-10-03T17:06:36.245Z,19.75
2023-10-03T17:09:04.292Z,19.66
2023-10-03T17:11:31.830Z,19.65
2023-10-03T17:14:00.595Z,19.73
2023-10-03T17:16:27.868Z,19.59
2023-10-03T17:18:55.102Z,19.45
2023-10-03T17:21:22.226Z,19.44
2023-10-03T17:23:49.350Z,19.51
2023-10-03T17:26:17.386Z,19.68
2023-10-03T17:28:47.235Z,19.60
2023-10-03T17:31:14.261Z,19.53
2023-10-03T17:33:43.027Z,19.42
2023-10-03T17:36:10.394Z,19.51
2023-10-03T17:38:37.452Z,19.64
2023-10-03T17:41:06.732Z,19.28
2023-10-03T17:43:37.226Z,19.30
2023-10-03T17:46:04.593Z,19.43
2023-10-03T17:48:31.854Z,19.44
2023-10-03T17:50:59.206Z,19.21
2023-10-03T17:53:28.403Z,19.31
2023-10-03T17:55:56.888Z,19.36
2023-10-03T17:58:23.887Z,19.52
2023-10-03T18:00:51.500Z,19.66
2023-10-03T18:03:19.008Z,19.82
2023-10-03T18:05:46.024Z,19.71
2023-10-03T18:08:13.505Z,19.85
2023-10-03T18:10:40.561Z,19.75
2023-10-03T18:13:07.637Z,19.62
2023-10-03T18:15:35.166Z,19.39
2023-10-03T18:18:02.834Z,19.34
2023-10-03T18:20:30.745Z,19.21
2023-10-03T18:22:57.858Z,19.14
2023-10-03T18:25:24.869Z,19.32
2023-10-03T18:27:51.867Z,19.06
2023-10-03T18:30:20.115Z,19.08
2023-10-03T18:32:48.369Z,19.03
2023-10-03T18:35:15.532Z,19.05
2023-10-03T18:37:43.268Z,19.09
2023-10-03T18:40:13.084Z,18.94
2023-10-03T18:42:40.115Z,18.88
2023-10-03T18:45:07.839Z,18.83
2023-10-03T18:47:35.359Z,18.85
2023-10-03T18:50:03.082Z,18.89
2023-10-03T18:52:33.158Z,18.77
2023-10-03T18:55:03.629Z,18.72
2023-10-03T18:57:32.323Z,18.92
2023-10-03T18:59:59.606Z,18.76
2023-10-03T19:02:26.784Z,18.49
2023-10-03T19:04:54.539Z,18.56
2023-10-03T19:07:21.530Z,18.33
2023-10-03T19:09:50.111Z,18.33
2023-10-03T19:12:17.786Z,18.14
2023-10-03T19:14:45.195Z,18.06
2023-10-03T19:17:12.276Z,18.18
2023-10-03T19:19:39.253Z,17.99
2023-10-03T19:22:06.430Z,17.64
2023-10-03T19:24:33.478Z,17.42
2023-10-03T19:27:02.316Z,17.64
2023-10-03T19:29:29.609Z,17.81
2023-10-03T19:31:57.555Z,18.01
2023-10-03T19:34:24.516Z,18.14
2023-10-03T19:36:51.519Z,18.23
2023-10-03T19:39:18.754Z,18.26
2023-10-03T19:41:45.831Z,18.32
2023-10-03T19:44:14.655Z,18.25
2023-10-03T19:46:42.519Z,18.11
2023-10-03T19:49:10.737Z,18.01
2023-10-03T19:51:37.904Z,17.92
2023-10-03T19:54:04.985Z,17.81
2023-10-03T19:56:32.648Z,17.81
2023-10-03T19:59:02.149Z,17.68
2023-10-03T20:01:30.866Z,17.70
2023-10-03T20:04:00.421Z,17.47
2023-10-03T20:06:29.323Z,17.20
2023-10-03T20:08:56.663Z,17.02
2023-10-03T20:11:24.839Z,17.27
2023-10-03T20:13:51.984Z,17.05
2023-10-03T20:16:19.359Z,16.83
2023-10-03T20:18:49.664Z,17.16
2023-10-03T20:21:18.243Z,17.17
2023-10-03T20:23:45.999Z,17.23
2023-10-03T20:26:13.163Z,17.22
2023-10-03T20:28:40.180Z,17.05
2023-10-03T20:31:08.873Z,17.14
2023-10-03T20:33:37.698Z,17.30
2023-10-03T20:36:05.504Z,17.38
2023-10-03T20:38:32.696Z,17.10
2023-10-03T20:40:59.763Z,17.08
2023-10-03T20:43:27.038Z,17.04
2023-10-03T20:45:54.230Z,16.48
2023-10-03T20:48:21.239Z,16.37
2023-10-03T20:50:48.882Z,16.29
2023-10-03T20:53:16.047Z,16.37
2023-10-03T20:55:43.225Z,16.52
2023-10-03T20:58:10.194Z,16.59
2023-10-03T21:00:37.130Z,16.53
2023-10-03T21:03:04.665Z,16.32
2023-10-03T21:05:31.821Z,16.01
2023-10-03T21:07:58.896Z,15.41
2023-10-03T21:10:26.241Z,15.30
2023-10-03T21:12:53.509Z,15.37
2023-10-03T21:15:21.538Z,15.56
2023-10-03T21:17:48.709Z,15.72
2023-10-03T21:20:16.693Z,15.84
2023-10-03T21:22:45.951Z,15.90
2023-10-03T21:25:13.094Z,15.97
2023-10-03T21:27:40.364Z,15.88
2023-10-03T21:30:13.184Z,15.77
2023-10-03T21:32:41.762Z,15.54
2023-10-03T21:35:09.318Z,15.25
2023-10-03T21:37:36.884Z,15.23
2023-10-03T21:40:04.276Z,15.32
2023-10-03T21:42:31.868Z,15.55
2023-10-03T21:44:59.210Z,15.57
2023-10-03T21:47:28.385Z,15.59
2023-10-03T21:49:55.882Z,15.62
2023-10-03T21:52:24.486Z,15.80
2023-10-03T21:54:52.652Z,15.95
2023-10-03T21:57:19.910Z,15.82
2023-10-03T21:59:47.408Z,15.86
2023-10-03T22:02:15.889Z,15.76
2023-10-03T22:04:43.236Z,15.71
2023-10-03T22:07:11.222Z,15.45
2023-10-03T22:09:39.034Z,15.33
2023-10-03T22:12:06.469Z,15.55
2023-10-03T22:14:34.098Z,15.31
2023-10-03T22:17:01.486Z,15.12
2023-10-03T22:19:29.820Z,14.78
2023-10-03T22:21:57.871Z,14.92
2023-10-03T22:24:25.635Z,14.97
2023-10-03T22:26:53.788Z,14.98
2023-10-03T22:29:21.125Z,15.19
2023-10-03T22:31:48.347Z,15.10
2023-10-03T22:34:15.475Z,15.21
2023-10-03T22:36:42.986Z,15.18
2023-10-03T22:39:10.147Z,15.15
2023-10-03T22:41:37.203Z,15.08
2023-10-03T22:44:04.960Z,14.81
2023-10-03T22:46:32.396Z,14.61
2023-10-03T22:48:59.529Z,14.21
2023-10-03T22:51:26.872Z,13.94
2023-10-03T22:53:54.153Z,14.14
2023-10-03T22:56:26.321Z,14.33
2023-10-03T22:58:54.786Z,14.51
2023-10-03T23:01:22.280Z,14.69
2023-10-03T23:03:49.829Z,14.71
2023-10-03T23:06:17.810Z,14.49
2023-10-03T23:08:45.336Z,14.60
2023-10-03T23:11:13.061Z,14.13
2023-10-03T23:13:43.003Z,13.68
2023-10-03T23:16:10.314Z,13.57
2023-10-03T23:18:37.458Z,13.55
2023-10-03T23:21:04.833Z,13.25
2023-10-03T23:23:32.013Z,13.44
2023-10-03T23:25:59.910Z,13.33
2023-10-03T23:28:27.400Z,13.31
2023-10-03T23:30:54.723Z,13.12
2023-10-03T23:33:23.678Z,13.48
2023-10-03T23:35:51.514Z,13.67
2023-10-03T23:38:18.617Z,13.88
2023-10-03T23:40:45.599Z,14.03
2023-10-03T23:43:12.677Z,14.12
2023-10-03T23:45:39.777Z,13.92
2023-10-03T23:48:07.322Z,14.12
2023-10-03T23:50:34.734Z,14.15
2023-10-03T23:53:04.293Z,14.16
2023-10-03T23:55:31.391Z,13.89
2023-10-03T23:58:01.726Z,14.01
